createdAt,value
2017-11-12T00:02:22.198Z,7.37
2017-11-12T00:04:51.676Z,7.07
2017-11-12T00:07:20.933Z,8.60
2017-11-12T00:09:49.393Z,7.57
2017-11-12T00:12:17.887Z,6.40
2017-11-12T00:14:46.355Z,7.03
2017-11-12T00:17:14.857Z,7.87
2017-11-12T00:19:43.324Z,7.20
2017-11-12T00:22:11.794Z,7.87
2017-11-12T00:24:40.299Z,7.13
2017-11-12T00:27:08.773Z,7.40
2017-11-12T00:29:37.271Z,8.20
2017-11-12T00:32:05.188Z,6.60
2017-11-12T00:34:33.668Z,7.17
2017-11-12T00:37:02.137Z,7.10
2017-11-12T00:39:31.376Z,7.33
2017-11-12T00:41:59.655Z,7.80
2017-11-12T00:44:28.236Z,6.70
2017-11-12T00:46:56.726Z,6.57
2017-11-12T00:49:26.301Z,6.93
2017-11-12T00:51:55.010Z,6.37
2017-11-12T00:54:23.487Z,5.63
2017-11-12T00:56:51.957Z,5.33
2017-11-12T00:59:20.424Z,5.27
2017-11-12T01:01:49.660Z,4.90
2017-11-12T01:04:18.128Z,6.20
2017-11-12T01:06:46.772Z,5.50
2017-11-12T01:09:15.242Z,6.10
2017-11-12T01:11:43.957Z,6.20
2017-11-12T01:14:13.250Z,6.73
2017-11-12T01:16:42.605Z,6.67
2017-11-12T01:19:11.084Z,6.87
2017-11-12T01:21:39.546Z,6.43
2017-11-12T01:24:08.022Z,6.70
2017-11-12T01:26:36.557Z,6.77
2017-11-12T01:29:05.044Z,6.57
2017-11-12T01:31:33.534Z,6.83
2017-11-12T01:34:02.026Z,5.90
2017-11-12T01:36:30.560Z,7.13
2017-11-12T01:38:59.032Z,7.20
2017-11-12T01:41:27.514Z,6.97
2017-11-12T01:43:55.652Z,7.17
2017-11-12T01:46:24.133Z,8.00
2017-11-12T01:48:54.133Z,6.77
2017-11-12T01:51:22.712Z,6.67
2017-11-12T01:53:51.184Z,7.13
2017-11-12T01:56:19.700Z,7.30
2017-11-12T01:58:47.440Z,6.87
2017-11-12T02:01:15.905Z,8.17
2017-11-12T02:03:44.212Z,6.90
2017-11-12T02:06:12.681Z,7.33
2017-11-12T02:08:40.796Z,7.47
2017-11-12T02:11:10.295Z,6.40
2017-11-12T02:13:39.532Z,6.70
2017-11-12T02:16:08.009Z,7.83
2017-11-12T02:18:36.487Z,7.37
2017-11-12T02:21:04.761Z,7.63
2017-11-12T02:23:34.001Z,7.10
2017-11-12T02:26:02.104Z,8.67
2017-11-12T02:28:29.897Z,8.33
2017-11-12T02:30:58.783Z,8.90
2017-11-12T02:33:28.000Z,8.83
2017-11-12T02:35:56.120Z,8.47
2017-11-12T02:38:24.574Z,7.60
2017-11-12T02:40:53.154Z,8.73
2017-11-12T02:43:20.951Z,7.53
2017-11-12T02:45:49.753Z,8.80
2017-11-12T02:48:17.525Z,7.37
2017-11-12T02:50:45.760Z,7.80
2017-11-12T02:53:14.223Z,7.67
2017-11-12T02:55:42.327Z,6.47
2017-11-12T02:58:10.460Z,8.80
2017-11-12T03:00:38.925Z,6.63
2017-11-12T03:03:08.331Z,7.27
2017-11-12T03:05:37.583Z,5.57
2017-11-12T03:08:05.943Z,5.77
2017-11-12T03:10:34.404Z,5.50
2017-11-12T03:13:03.641Z,6.00
2017-11-12T03:15:32.112Z,5.50
2017-11-12T03:18:00.589Z,5.90
2017-11-12T03:20:29.064Z,6.93
2017-11-12T03:22:57.535Z,6.87
2017-11-12T03:25:26.265Z,5.80
2017-11-12T03:27:54.052Z,6.20
2017-11-12T03:30:23.424Z,5.10
2017-11-12T03:32:51.717Z,6.63
2017-11-12T03:35:20.184Z,5.30
2017-11-12T03:37:48.664Z,5.10
2017-11-12T03:40:17.132Z,6.20
2017-11-12T03:42:45.695Z,5.93
2017-11-12T03:45:14.937Z,6.00
2017-11-12T03:47:43.399Z,6.20
2017-11-12T03:50:11.501Z,6.03
2017-11-12T03:52:39.968Z,6.67
2017-11-12T03:55:07.907Z,5.83
2017-11-12T03:57:36.627Z,6.60
2017-11-12T04:00:05.104Z,5.57
2017-11-12T04:02:33.241Z,6.10
2017-11-12T04:05:01.970Z,5.40
2017-11-12T04:07:30.465Z,6.30
2017-11-12T04:09:58.992Z,6.23
2017-11-12T04:12:28.242Z,6.60
2017-11-12T04:14:56.769Z,5.83
2017-11-12T04:17:25.225Z,5.83
2017-11-12T04:19:53.692Z,7.40
2017-11-12T04:22:22.182Z,6.63
2017-11-12T04:24:50.659Z,5.77
2017-11-12T04:27:19.127Z,7.40
2017-11-12T04:29:47.604Z,7.13
2017-11-12T04:32:16.083Z,6.57
2017-11-12T04:34:44.543Z,7.17
2017-11-12T04:37:13.790Z,6.73
2017-11-12T04:39:42.286Z,7.03
2017-11-12T04:42:10.752Z,6.93
2017-11-12T04:44:39.573Z,7.47
2017-11-12T04:47:09.388Z,7.63
2017-11-12T04:49:39.344Z,7.53
2017-11-12T04:52:07.828Z,8.17
2017-11-12T04:54:36.115Z,8.30
2017-11-12T04:57:04.616Z,8.00
2017-11-12T04:59:33.112Z,8.03
2017-11-12T05:02:01.588Z,9.33
2017-11-12T05:04:30.071Z,9.13
2017-11-12T05:06:58.549Z,9.13
2017-11-12T05:09:27.020Z,7.77
2017-11-12T05:11:55.162Z,9.30
2017-11-12T05:14:23.879Z,9.20
2017-11-12T05:16:52.365Z,8.37
2017-11-12T05:19:20.824Z,7.60
2017-11-12T05:21:49.331Z,8.00
2017-11-12T05:24:17.808Z,8.60
2017-11-12T05:26:46.280Z,7.93
2017-11-12T05:29:14.892Z,8.67
2017-11-12T05:31:43.380Z,8.50
2017-11-12T05:34:11.848Z,9.17
2017-11-12T05:36:40.309Z,8.60
2017-11-12T05:39:08.784Z,9.07
2017-11-12T05:41:37.237Z,8.83
2017-11-12T05:44:05.724Z,8.73
2017-11-12T05:46:34.199Z,8.03
2017-11-12T05:49:02.705Z,9.50
2017-11-12T05:51:31.939Z,8.90
2017-11-12T05:54:00.521Z,9.77
2017-11-12T05:56:29.032Z,9.03
2017-11-12T05:58:57.321Z,10.33
2017-11-12T06:01:27.297Z,9.77
2017-11-12T06:03:55.781Z,11.07
2017-11-12T06:06:24.248Z,11.27
2017-11-12T06:08:53.564Z,10.30
2017-11-12T06:11:21.856Z,9.77
2017-11-12T06:13:50.171Z,10.27
2017-11-12T06:16:18.973Z,9.37
2017-11-12T06:18:48.017Z,10.40
2017-11-12T06:21:16.133Z,9.00
2017-11-12T06:23:45.178Z,9.37
2017-11-12T06:26:13.659Z,8.93
2017-11-12T06:28:42.200Z,9.47
2017-11-12T06:31:10.684Z,9.67
2017-11-12T06:33:39.935Z,10.47
2017-11-12T06:36:08.429Z,10.10
2017-11-12T06:38:36.913Z,10.33
2017-11-12T06:41:04.690Z,10.00
2017-11-12T06:43:33.186Z,9.57
2017-11-12T06:46:01.652Z,10.40
2017-11-12T06:48:30.133Z,10.07
2017-11-12T06:50:58.589Z,9.43
2017-11-12T06:53:27.100Z,11.23
2017-11-12T06:55:55.596Z,10.00
2017-11-12T06:58:24.073Z,10.20
2017-11-12T07:00:52.557Z,11.03
2017-11-12T07:03:21.113Z,10.53
2017-11-12T07:05:49.593Z,12.17
2017-11-12T07:08:18.061Z,12.37
2017-11-12T07:10:46.550Z,13.30
2017-11-12T07:13:15.049Z,11.60
2017-11-12T07:15:43.517Z,12.17
2017-11-12T07:18:12.116Z,11.77
2017-11-12T07:20:40.596Z,12.00
2017-11-12T07:23:09.079Z,11.53
2017-11-12T07:25:37.556Z,11.17
2017-11-12T07:28:06.012Z,10.80
2017-11-12T07:30:34.493Z,11.13
2017-11-12T07:33:02.961Z,11.10
2017-11-12T07:35:32.225Z,11.33
2017-11-12T07:38:00.707Z,9.73
2017-11-12T07:40:29.168Z,9.53
2017-11-12T07:42:57.708Z,10.37
2017-11-12T07:45:26.937Z,9.53
2017-11-12T07:47:55.405Z,9.57
2017-11-12T07:50:23.908Z,11.53
2017-11-12T07:52:52.959Z,9.17
2017-11-12T07:55:22.210Z,10.00
2017-11-12T07:57:51.060Z,9.90
2017-11-12T08:00:20.357Z,10.03
2017-11-12T08:02:49.516Z,8.23
2017-11-12T08:05:18.053Z,8.73
2017-11-12T08:07:47.294Z,8.83
2017-11-12T08:10:16.814Z,9.00
2017-11-12T08:12:45.286Z,8.53
2017-11-12T08:15:13.778Z,9.57
2017-11-12T08:17:42.241Z,9.70
2017-11-12T08:20:10.724Z,8.90
2017-11-12T08:22:38.857Z,8.17
2017-11-12T08:25:08.104Z,7.00
2017-11-12T08:27:36.816Z,7.87
2017-11-12T08:30:05.360Z,8.73
2017-11-12T08:32:33.836Z,8.30
2017-11-12T08:35:02.304Z,8.00
2017-11-12T08:37:30.772Z,8.70
2017-11-12T08:40:00.008Z,7.87
2017-11-12T08:42:28.478Z,9.07
2017-11-12T08:44:56.950Z,8.43
2017-11-12T08:47:25.436Z,9.10
2017-11-12T08:49:53.931Z,8.87
2017-11-12T08:52:22.056Z,8.20
2017-11-12T08:54:50.185Z,9.60
2017-11-12T08:57:18.670Z,7.90
2017-11-12T08:59:47.159Z,9.50
2017-11-12T09:02:15.651Z,8.13
2017-11-12T09:04:43.793Z,8.00
2017-11-12T09:07:12.502Z,7.70
2017-11-12T09:09:41.036Z,6.60
2017-11-12T09:12:09.529Z,7.27
2017-11-12T09:14:38.802Z,8.23
2017-11-12T09:17:07.285Z,7.47
2017-11-12T09:19:35.815Z,6.73
2017-11-12T09:22:04.320Z,6.40
2017-11-12T09:24:32.795Z,6.93
2017-11-12T09:27:01.268Z,5.20
2017-11-12T09:29:29.820Z,5.97
2017-11-12T09:31:58.292Z,5.57
2017-11-12T09:34:26.773Z,5.47
2017-11-12T09:36:55.268Z,6.80
2017-11-12T09:39:23.828Z,5.90
2017-11-12T09:41:52.313Z,5.90
2017-11-12T09:44:20.777Z,6.03
2017-11-12T09:46:49.279Z,5.00
2017-11-12T09:49:18.388Z,5.33
2017-11-12T09:51:46.875Z,5.40
2017-11-12T09:54:15.234Z,5.00
2017-11-12T09:56:43.708Z,4.70
2017-11-12T09:59:12.193Z,5.50
2017-11-12T10:01:40.656Z,4.57
2017-11-12T10:04:09.159Z,6.10
2017-11-12T10:06:37.640Z,6.03
2017-11-12T10:09:06.137Z,6.23
2017-11-12T10:11:34.614Z,6.10
2017-11-12T10:14:03.148Z,6.20
2017-11-12T10:16:31.608Z,5.57
2017-11-12T10:19:00.892Z,5.63
2017-11-12T10:21:29.372Z,5.17
2017-11-12T10:23:57.868Z,5.33
2017-11-12T10:26:26.375Z,4.60
2017-11-12T10:28:55.079Z,5.03
2017-11-12T10:31:23.571Z,5.20
2017-11-12T10:33:52.073Z,4.97
2017-11-12T10:36:20.653Z,5.30
2017-11-12T10:38:49.205Z,4.73
2017-11-12T10:41:17.744Z,4.60
2017-11-12T10:43:46.206Z,4.40
2017-11-12T10:46:14.701Z,5.03
2017-11-12T10:48:43.168Z,4.80
2017-11-12T10:51:11.654Z,5.50
2017-11-12T10:53:41.176Z,4.57
2017-11-12T10:56:09.661Z,4.57
2017-11-12T10:58:38.132Z,4.30
2017-11-12T11:01:06.602Z,4.53
2017-11-12T11:03:35.084Z,4.50
2017-11-12T11:06:03.589Z,3.97
2017-11-12T11:08:32.093Z,3.40
2017-11-12T11:11:01.321Z,3.07
2017-11-12T11:13:29.867Z,3.47
2017-11-12T11:15:59.121Z,2.60
2017-11-12T11:18:27.583Z,3.03
2017-11-12T11:20:56.065Z,2.90
2017-11-12T11:23:24.529Z,2.30
2017-11-12T11:25:53.773Z,2.13
2017-11-12T11:28:22.252Z,2.17
2017-11-12T11:30:50.732Z,1.80
2017-11-12T11:33:19.230Z,1.47
2017-11-12T11:35:47.705Z,1.40
2017-11-12T11:38:16.175Z,1.50
2017-11-12T11:40:44.674Z,1.40
2017-11-12T11:43:13.170Z,1.23
2017-11-12T11:45:41.664Z,3.30
2017-11-12T11:48:10.215Z,1.50
2017-11-12T11:50:38.828Z,1.33
2017-11-12T11:53:07.309Z,0.83
2017-11-12T11:55:36.065Z,0.90
2017-11-12T11:58:04.560Z,0.60
2017-11-12T12:00:33.207Z,0.70
2017-11-12T12:03:02.484Z,1.00
2017-11-12T12:05:30.953Z,0.57
2017-11-12T12:07:59.503Z,0.60
2017-11-12T12:10:27.974Z,0.40
2017-11-12T12:12:55.770Z,0.50
2017-11-12T12:15:24.245Z,0.50
2017-11-12T12:17:52.755Z,0.60
2017-11-12T12:20:21.246Z,0.60
2017-11-12T12:22:49.745Z,0.50
2017-11-12T12:25:19.045Z,0.50
2017-11-12T12:27:48.279Z,0.60
2017-11-12T12:30:16.780Z,1.17
2017-11-12T12:32:45.253Z,1.90
2017-11-12T12:35:13.805Z,1.90
2017-11-12T12:37:42.863Z,1.13
2017-11-12T12:40:11.366Z,1.00
2017-11-12T12:42:39.830Z,0.67
2017-11-12T12:45:08.315Z,0.73
2017-11-12T12:47:36.625Z,0.70
2017-11-12T12:50:04.766Z,0.60
2017-11-12T12:52:33.065Z,0.70
2017-11-12T12:55:02.271Z,1.23
2017-11-12T12:57:31.553Z,1.17
2017-11-12T13:00:00.308Z,1.10
2017-11-12T13:02:29.552Z,0.90
2017-11-12T13:04:58.046Z,0.70
2017-11-12T13:07:27.211Z,0.70
2017-11-12T13:09:56.486Z,0.93
2017-11-12T13:12:25.760Z,0.90
2017-11-12T13:14:54.448Z,0.80
2017-11-12T13:17:23.877Z,0.80
2017-11-12T13:19:52.009Z,1.00
2017-11-12T13:22:20.105Z,0.70
2017-11-12T13:24:48.978Z,1.10
2017-11-12T13:27:17.453Z,2.12
2017-11-12T13:29:46.736Z,1.60
2017-11-12T13:32:15.483Z,0.82
2017-11-12T13:34:43.433Z,1.40
2017-11-12T13:37:12.814Z,0.70
2017-11-12T13:39:42.093Z,0.60
2017-11-12T13:42:11.597Z,0.60
2017-11-12T13:44:40.533Z,0.60
2017-11-12T13:47:09.778Z,0.60
2017-11-12T13:49:38.262Z,0.60
2017-11-12T13:52:06.730Z,0.70
2017-11-12T13:54:35.241Z,0.73
2017-11-12T13:57:03.740Z,0.63
2017-11-12T13:59:32.240Z,0.60
2017-11-12T14:02:01.492Z,0.80
2017-11-12T14:04:30.385Z,0.70
2017-11-12T14:06:58.853Z,0.70
2017-11-12T14:09:27.338Z,0.80
2017-11-12T14:11:56.028Z,0.70
2017-11-12T14:14:24.509Z,0.97
2017-11-12T14:16:54.033Z,0.70
2017-11-12T14:19:23.166Z,0.60
2017-11-12T14:21:52.452Z,1.00
2017-11-12T14:24:21.604Z,1.10
2017-11-12T14:26:50.607Z,1.25
2017-11-12T14:29:20.085Z,0.90
2017-11-12T14:31:48.858Z,0.85
2017-11-12T14:34:17.636Z,0.90
2017-11-12T14:36:46.499Z,1.37
2017-11-12T14:39:15.240Z,1.40
2017-11-12T14:41:45.496Z,1.40
2017-11-12T14:44:14.256Z,1.40
2017-11-12T14:46:42.992Z,1.60
2017-11-12T14:49:11.753Z,1.23
2017-11-12T14:51:41.281Z,1.40
2017-11-12T14:54:10.050Z,1.77
2017-11-12T14:56:39.725Z,1.50
2017-11-12T14:59:08.453Z,1.90
2017-11-12T15:01:38.017Z,1.45
2017-11-12T15:04:06.794Z,2.25
2017-11-12T15:06:35.532Z,2.83
2017-11-12T15:09:05.097Z,2.33
2017-11-12T15:11:33.854Z,2.37
2017-11-12T15:14:02.630Z,2.55
2017-11-12T15:16:31.632Z,1.98
2017-11-12T15:19:00.419Z,2.20
2017-11-12T15:21:29.186Z,2.30
2017-11-12T15:23:58.764Z,3.60
2017-11-12T15:26:27.524Z,2.50
2017-11-12T15:28:56.301Z,3.45
2017-11-12T15:31:25.066Z,3.78
2017-11-12T15:33:54.609Z,3.90
2017-11-12T15:36:23.485Z,4.70
2017-11-12T15:38:52.225Z,3.65
2017-11-12T15:41:20.988Z,4.15
2017-11-12T15:43:49.765Z,4.18
2017-11-12T15:46:18.406Z,4.87
2017-11-12T15:48:47.164Z,5.57
2017-11-12T15:51:16.019Z,6.50
2017-11-12T15:53:45.015Z,5.85
2017-11-12T15:56:13.757Z,6.12
2017-11-12T15:58:42.517Z,7.95
2017-11-12T16:01:11.246Z,8.80
2017-11-12T16:03:40.000Z,7.82
2017-11-12T16:06:08.749Z,7.10
2017-11-12T16:08:38.265Z,7.45
2017-11-12T16:11:07.000Z,7.03
2017-11-12T16:13:35.771Z,7.05
2017-11-12T16:16:04.534Z,6.60
2017-11-12T16:18:33.273Z,7.18
2017-11-12T16:21:02.021Z,7.82
2017-11-12T16:23:30.773Z,8.30
2017-11-12T16:25:59.599Z,7.00
2017-11-12T16:28:28.340Z,6.75
2017-11-12T16:30:57.102Z,5.55
2017-11-12T16:33:25.866Z,5.75
2017-11-12T16:35:54.708Z,6.10
2017-11-12T16:38:23.445Z,5.60
2017-11-12T16:40:52.188Z,6.85
2017-11-12T16:43:20.929Z,7.18
2017-11-12T16:45:49.562Z,5.12
2017-11-12T16:48:18.417Z,4.30
2017-11-12T16:50:47.413Z,5.00
2017-11-12T16:53:16.164Z,4.10
2017-11-12T16:55:45.685Z,3.70
2017-11-12T16:58:14.468Z,3.17
2017-11-12T17:00:42.652Z,3.78
2017-11-12T17:03:11.073Z,3.10
2017-11-12T17:05:39.818Z,3.10
2017-11-12T17:08:08.574Z,3.50
2017-11-12T17:10:37.339Z,2.70
2017-11-12T17:13:06.104Z,2.75
2017-11-12T17:15:34.828Z,3.42
2017-11-12T17:18:03.601Z,2.00
2017-11-12T17:20:32.443Z,2.87
2017-11-12T17:23:00.521Z,3.05
2017-11-12T17:25:29.267Z,3.12
2017-11-12T17:27:58.026Z,2.60
2017-11-12T17:30:26.789Z,2.65
2017-11-12T17:32:55.539Z,2.58
2017-11-12T17:35:25.091Z,2.72
2017-11-12T17:37:53.856Z,2.85
2017-11-12T17:40:23.424Z,2.75
2017-11-12T17:42:52.176Z,2.70
2017-11-12T17:45:22.471Z,3.20
2017-11-12T17:47:51.474Z,2.87
2017-11-12T17:50:21.011Z,2.58
2017-11-12T17:52:49.793Z,2.85
2017-11-12T17:55:18.569Z,2.30
2017-11-12T17:57:47.350Z,3.17
2017-11-12T18:00:16.530Z,2.60
2017-11-12T18:02:45.305Z,2.92
2017-11-12T18:05:14.066Z,3.20
2017-11-12T18:07:42.974Z,2.78
2017-11-12T18:10:11.732Z,2.65
2017-11-12T18:12:40.522Z,2.25
2017-11-12T18:15:09.110Z,2.12
2017-11-12T18:17:37.867Z,2.70
2017-11-12T18:20:07.277Z,3.28
2017-11-12T18:22:36.116Z,3.50
2017-11-12T18:25:05.408Z,4.35
2017-11-12T18:27:34.180Z,4.93
2017-11-12T18:30:02.951Z,3.85
2017-11-12T18:32:32.484Z,4.25
2017-11-12T18:35:01.465Z,4.28
2017-11-12T18:37:30.211Z,4.65
2017-11-12T18:39:58.878Z,4.45
2017-11-12T18:42:27.458Z,4.12
2017-11-12T18:44:56.218Z,4.35
2017-11-12T18:47:24.848Z,4.32
2017-11-12T18:49:53.405Z,4.30
2017-11-12T18:52:21.985Z,4.30
2017-11-12T18:54:50.845Z,4.15
2017-11-12T18:57:24.737Z,4.10
2017-11-12T18:59:54.800Z,4.15
2017-11-12T19:02:43.022Z,4.70
2017-11-12T19:05:18.017Z,5.30
2017-11-12T19:08:03.170Z,5.70
2017-11-12T19:10:31.781Z,5.10
2017-11-12T19:13:00.407Z,4.90
2017-11-12T19:15:29.065Z,5.30
2017-11-12T19:17:57.644Z,5.55
2017-11-12T19:33:49.441Z,5.45
2017-11-12T19:36:18.104Z,4.87
2017-11-12T19:38:46.852Z,4.30
2017-11-12T19:41:15.657Z,4.90
2017-11-12T19:43:45.181Z,4.40
2017-11-12T19:46:13.685Z,4.67
2017-11-12T19:48:42.227Z,5.03
2017-11-12T19:51:10.727Z,5.10
2017-11-12T19:53:40.047Z,4.90
2017-11-12T19:56:08.533Z,5.63
2017-11-12T19:58:37.060Z,4.83
2017-11-12T20:01:07.497Z,5.95
2017-11-12T20:03:36.306Z,5.32
2017-11-12T20:06:05.931Z,5.57
2017-11-12T20:08:34.722Z,5.53
2017-11-12T20:11:03.325Z,5.72
2017-11-12T20:13:31.924Z,6.00
2017-11-12T20:16:00.734Z,5.20
2017-11-12T20:18:29.524Z,4.60
2017-11-12T20:20:58.075Z,4.20
2017-11-12T20:23:26.868Z,5.55
2017-11-12T20:25:55.309Z,5.20
2017-11-12T20:28:24.089Z,6.00
2017-11-12T20:30:52.621Z,5.90
2017-11-12T20:33:21.667Z,5.50
2017-11-12T20:35:50.474Z,5.87
2017-11-12T20:38:19.432Z,6.10
2017-11-12T20:40:48.517Z,5.25
2017-11-12T20:43:17.326Z,4.97
2017-11-12T20:45:45.941Z,5.12
2017-11-12T20:48:14.518Z,4.90
2017-11-12T20:50:43.841Z,4.95
2017-11-12T20:53:12.568Z,4.95
2017-11-12T20:55:41.169Z,5.65
2017-11-12T20:58:09.753Z,5.07
2017-11-12T21:00:53.234Z,5.10
2017-11-12T21:03:21.849Z,4.93
2017-11-12T21:06:01.127Z,5.30
2017-11-12T21:08:30.472Z,3.87
2017-11-12T21:10:59.033Z,4.30
2017-11-12T21:13:27.629Z,4.43
2017-11-12T21:15:56.201Z,3.83
2017-11-12T21:18:24.754Z,4.05
2017-11-12T21:21:11.896Z,4.30
2017-11-12T21:23:43.294Z,4.50
2017-11-12T21:26:11.917Z,4.30
2017-11-12T21:28:42.578Z,4.15
2017-11-12T21:31:26.048Z,3.78
2017-11-12T21:33:55.872Z,3.55
2017-11-12T21:36:34.356Z,3.83
2017-11-12T21:39:03.009Z,3.47
2017-11-12T21:41:32.369Z,4.20
2017-11-12T21:44:00.942Z,4.00
2017-11-12T21:46:29.571Z,3.85
2017-11-12T21:48:59.127Z,4.28
2017-11-12T21:51:27.909Z,4.85
2017-11-12T21:53:56.664Z,4.32
2017-11-12T21:56:26.201Z,4.93
2017-11-12T21:58:54.986Z,4.32
2017-11-12T22:01:23.754Z,3.78
2017-11-12T22:03:53.271Z,3.90
2017-11-12T22:06:22.802Z,4.85
2017-11-12T22:08:51.554Z,4.75
2017-11-12T22:11:21.083Z,5.53
2017-11-12T22:13:49.861Z,4.68
2017-11-12T22:16:18.597Z,4.97
2017-11-12T22:18:47.412Z,4.70
2017-11-12T22:21:15.985Z,4.20
2017-11-12T22:23:44.536Z,4.80
2017-11-12T22:26:13.185Z,4.60
2017-11-12T22:28:42.704Z,4.55
2017-11-12T22:31:11.458Z,4.40
2017-11-12T22:33:40.198Z,4.90
2017-11-12T22:36:08.966Z,4.25
2017-11-12T22:38:38.467Z,4.80
2017-11-12T22:41:07.260Z,5.07
2017-11-12T22:43:36.852Z,4.78
2017-11-12T22:46:05.609Z,5.43
2017-11-12T22:48:34.339Z,5.70
2017-11-12T22:51:03.862Z,5.30
2017-11-12T22:53:32.697Z,5.25
2017-11-12T22:56:01.433Z,4.70
2017-11-12T22:58:30.953Z,5.18
2017-11-12T23:00:59.528Z,5.00
2017-11-12T23:03:29.045Z,5.22
2017-11-12T23:05:57.768Z,5.57
2017-11-12T23:08:26.508Z,5.95
2017-11-12T23:10:55.848Z,5.25
2017-11-12T23:13:24.601Z,5.35
2017-11-12T23:15:54.116Z,5.90
2017-11-12T23:18:23.021Z,5.40
2017-11-12T23:20:51.767Z,5.45
2017-11-12T23:23:20.501Z,5.95
2017-11-12T23:25:49.267Z,5.70
2017-11-12T23:28:18.388Z,5.30
2017-11-12T23:30:47.217Z,5.30
2017-11-12T23:33:15.948Z,5.97
2017-11-12T23:35:45.477Z,6.22
2017-11-12T23:38:14.256Z,5.20
2017-11-12T23:40:43.236Z,5.75
2017-11-12T23:43:11.996Z,6.12
2017-11-12T23:45:41.017Z,6.03
2017-11-12T23:48:10.511Z,5.43
2017-11-12T23:50:40.066Z,5.07
2017-11-12T23:53:08.873Z,5.75
2017-11-12T23:55:37.617Z,5.60
2017-11-12T23:58:05.699Z,5.50
